Detall de PIREP

Printer-friendly versionPDF version

[2012/08/07 18:45:00]
Flight IATA:CT3128
Pilot Number:026
Company ICAO:CAT
Aircraft Type:DC85/A
PAX:0
Aircraft Registration:CARGO
Departing Airport: LEVC
Destination Airport: LEZG
Alternate Airport:LERS
Online: VATSIM
Route:TATOS A34 MLA
Flight Level:F160
No Slew and time accel
No pause
Crash detect
Detect pilot in Cockpit between each 30 and 45 minutes
18:45 Zero fuel Weight: 187231 Lbs, Fuel Weight: 21000 Lbs
18:45 VATSIM:LEVC 071830Z 08009KT 050V110 9999 FEW025 26/18 Q1020 NOSIG
18:45 VATSIM:LEZG 071830Z 11013KT 080V140 CAVOK 31/11 Q1018
18:45 VOICE CATALONIAN / IATA CT3128 INTERHUB ROUTE
18:50 Parking Brakes off
18:58 Take-off
18:58 Take off Weight: 207194 Lbs
18:58 Wind: 090º @ 009 Knots Heading: 114º
18:58 POS N39º 29´ 19´´ W000º 28´ 46´´
18:58 Gear Up: 160 Knots
18:58 Flaps:2 at 160 Knots
18:59 Flaps:1 at 234 Knots
19:00 Flaps:0 at 233 Knots
19:05 TOC
19:05 Fuel Weight: 17275 Lb
19:13 Wind:086º@024 Knots Heading: 019º Ground Speed: 403 Knots Altitude 16174 ft
19:22 TOD
19:22 Fuel Weight: 13584 Lb
19:28 Wind:109º@031 Knots Heading: 356º Ground Speed: 281 Knots Altitude 8074 ft
19:33 Flaps:1 at 160 Knots
19:33 Gear Down: 161 Knots
19:38 Flaps:2 at 172 Knots
19:39 Flaps:3 at 168 Knots
19:40 Flaps:4 at 133 Knots
19:40 TouchDown:Rate -368 ft/min Speed: 122 Knots
19:41 VATSIM:LEZG 071930Z 11012KT CAVOK 29/11 Q1018
19:41 Land
19:41 Wind:118º@014 Knots
19:41 Heading: 120º
19:41 Flight Duration: 00:43
19:41 Landing Weight: 198716 Lbs
19:41 POS N41º 39´ 51´´ W001º 01´ 43´´
19:45 Parking brakes on
19:45 Block to Block Duration: 00:55
19:45 Final Fuel: 11113 Lbls
19:45 Spent Fuel: 9887 Lbls
19:45 Flight Length: 221 NM
19:45 TOD Land Length: 75 NM

Exportar CSV

Powered by Drupal - Modified by Danger4k